logo
Search for airport 
image banner adimage banner adimage banner ad
image banner ad

VCCW - Wirawila

Located in Hambanthota, Sri Lanka

ICAO - VCCW, IATA - WRZ

Data provided by Airmate  

General information

Coordinates: N6°15'0" E81°13'60"
Elevation is 142 feet MSL.
 
View others Airports in Southern Province

Operational data

Special qualification required
Current time UTC:
Current local time:
METAR: VCRI 131810Z 07003KT 040V100 CAVOK 27/26 Q1010 NOSIG
TAF: TAF VCRI 131700Z 1318/1424 VRB05KT 9999 FEW018 TX35/1407Z TN24/1400Z BECMG 1403/1405 07008KT PROB30 TEMPO 1409/1415 VRB20G30KT 7000 -TSRA/SHRA SCT014 FEW018CB BKN080 BECMG 1414/1416 VRB05KT
View NOTAMs / SUP AIP / TFR affecting this airport [VIEW]
Communications frequencies: [VIEW]

Runways:

RWY identifierQFULength (ft)Width (ft)SurfaceLDA (ft)
0769°401998ASP
25249°401998ASP

Airport contact information

Address: Hambanthota Sri Lanka

Satellite view of VCCW